Time;durP1;ratioP1;P1;durP2;ratioP2;P2;SDS_P1;SDS_P2;PMS_P1;PMS_P2;Temp;Humidity;BMP_temperature;BMP_pressure;BME280_temperature;BME280_humidity;BME280_pressure;Samples;Min_cycle;Max_cycle;Signal;HPM_P1;HPM_P2
2023/08/06 00:05:22;;;;;;;1999.90;999.90;;;;;;;;;;6721441;88;20250;-80
2023/08/06 00:15:23;;;;;;;1999.90;999.90;;;;;;;;;;6719114;88;20226;-79
2023/08/06 00:25:24;;;;;;;1999.90;999.90;;;;;;;;;;6727035;88;20197;-79
2023/08/06 00:35:25;;;;;;;1999.90;999.90;;;;;;;;;;6717201;88;20203;-79
2023/08/06 00:45:26;;;;;;;1999.90;999.90;;;;;;;;;;6722383;88;20214;-79
2023/08/06 00:55:27;;;;;;;1999.90;999.90;;;;;;;;;;6720745;88;20216;-80
2023/08/06 01:05:28;;;;;;;1999.90;999.90;;;;;;;;;;6719982;88;20292;-80
2023/08/06 01:15:32;;;;;;;1999.90;999.90;;;;;;;;;;6720601;88;20743;-79
2023/08/06 01:25:49;;;;;;;1999.90;999.90;;;;;;;;;;6720634;88;20941;-79
2023/08/06 01:45:55;;;;;;;1999.90;999.90;;;;;;;;;;6752193;88;20170;-82
2023/08/06 01:55:56;;;;;;;1999.90;999.90;;;;;;;;;;6731359;88;20982;-86
2023/08/06 02:05:57;;;;;;;1999.90;999.90;;;;;;;;;;6731205;88;20188;-85
2023/08/06 02:15:58;;;;;;;1999.90;999.90;;;;;;;;;;6731288;88;20193;-84
2023/08/06 02:26:03;;;;;;;1999.90;999.90;;;;;;;;;;6746548;88;20275;-85
2023/08/06 02:36:04;;;;;;;1999.90;999.90;;;;;;;;;;6731042;88;20338;-85
2023/08/06 02:46:05;;;;;;;1999.90;999.90;;;;;;;;;;6697160;89;20156;-84
2023/08/06 02:56:38;;;;;;;;;;;;;;;;;;;;;
2023/08/06 03:06:27;;;;;;;1999.90;999.90;;;;;;;;;;6659614;89;20168;-86
2023/08/06 03:16:31;;;;;;;1999.90;999.90;;;;;;;;;;6704362;88;20162;-84
2023/08/06 03:26:32;;;;;;;1999.90;999.90;;;;;;;;;;6713282;88;20203;-85
2023/08/06 03:36:33;;;;;;;1999.90;999.90;;;;;;;;;;6719870;88;20744;-86
2023/08/06 03:46:35;;;;;;;1999.90;999.90;;;;;;;;;;6749905;88;20993;-86
2023/08/06 03:56:41;;;;;;;1999.90;999.90;;;;;;;;;;6750107;88;20989;-85
2023/08/06 04:06:49;;;;;;;1999.90;999.90;;;;;;;;;;6749869;88;20142;-86
2023/08/06 04:16:54;;;;;;;1999.90;999.90;;;;;;;;;;6749703;88;20169;-87
2023/08/06 04:26:55;;;;;;;1999.90;999.90;;;;;;;;;;6730377;88;20157;-86
2023/08/06 04:36:56;;;;;;;1999.90;999.90;;;;;;;;;;6698818;89;20234;-85
2023/08/06 04:46:57;;;;;;;1999.90;999.90;;;;;;;;;;6698775;89;20250;-87
2023/08/06 05:07:50;;;;;;;1999.90;999.90;;;;;;;;;;6622418;89;20288;-84
2023/08/06 05:17:52;;;;;;;1999.90;999.90;;;;;;;;;;6631282;89;20162;-85
2023/08/06 05:38:35;;;;;;;1999.90;999.90;;;;;;;;;;6712903;88;20215;-82
2023/08/06 05:48:36;;;;;;;1999.90;999.90;;;;;;;;;;6702670;88;20220;-82
2023/08/06 05:58:37;;;;;;;1999.90;999.90;;;;;;;;;;6703109;88;20754;-80
2023/08/06 06:08:38;;;;;;;1999.90;999.90;;;;;;;;;;6711968;88;20268;-82
2023/08/06 06:18:39;;;;;;;1999.90;999.90;;;;;;;;;;6716381;88;20174;-84
2023/08/06 06:28:40;;;;;;;1999.90;999.90;;;;;;;;;;6716720;88;20238;-84
2023/08/06 06:38:41;;;;;;;1999.90;999.90;;;;;;;;;;6715900;88;20209;-83
2023/08/06 06:48:42;;;;;;;1999.90;999.90;;;;;;;;;;6711901;88;20159;-83
2023/08/06 06:58:43;;;;;;;1999.90;999.90;;;;;;;;;;6715053;88;20183;-82
2023/08/06 07:08:44;;;;;;;1999.90;999.90;;;;;;;;;;6711134;88;20197;-83
2023/08/06 07:18:45;;;;;;;1999.90;999.90;;;;;;;;;;6711974;88;20979;-81
2023/08/06 07:28:46;;;;;;;1999.90;999.90;;;;;;;;;;6710073;88;20287;-82
2023/08/06 07:38:51;;;;;;;1999.90;999.90;;;;;;;;;;6706852;89;20651;-82
2023/08/06 07:48:52;;;;;;;1999.90;999.90;;;;;;;;;;6705851;89;20171;-83
2023/08/06 07:58:53;;;;;;;1999.90;999.90;;;;;;;;;;6707003;89;20194;-81
2023/08/06 08:08:54;;;;;;;1999.90;999.90;;;;;;;;;;6702805;88;20209;-81
2023/08/06 08:18:55;;;;;;;1999.90;999.90;;;;;;;;;;6687426;89;20209;-81
2023/08/06 08:28:57;;;;;;;1999.90;999.90;;;;;;;;;;6692456;88;20168;-80
2023/08/06 08:38:59;;;;;;;1999.90;999.90;;;;;;;;;;6698981;89;20187;-82
2023/08/06 08:49:00;;;;;;;1999.90;999.90;;;;;;;;;;6700352;89;20167;-82
2023/08/06 08:59:02;;;;;;;1999.90;999.90;;;;;;;;;;6700379;89;20189;-83
2023/08/06 09:09:09;;;;;;;1999.90;999.90;;;;;;;;;;6714366;88;20201;-83
2023/08/06 09:19:12;;;;;;;1999.90;999.90;;;;;;;;;;6712544;88;20478;-81
2023/08/06 09:29:14;;;;;;;1999.90;999.90;;;;;;;;;;6714762;88;20762;-83
2023/08/06 09:39:16;;;;;;;1999.90;999.90;;;;;;;;;;6716678;88;20259;-85
2023/08/06 09:49:21;;;;;;;1999.90;999.90;;;;;;;;;;6716266;88;20207;-86
2023/08/06 09:59:24;;;;;;;1999.90;999.90;;;;;;;;;;6712720;88;20274;-83
2023/08/06 10:09:25;;;;;;;1999.90;999.90;;;;;;;;;;6711525;88;20268;-83
2023/08/06 10:19:27;;;;;;;1999.90;999.90;;;;;;;;;;6710047;88;20615;-81
2023/08/06 10:29:38;;;;;;;1999.90;999.90;;;;;;;;;;6710973;88;20305;-83
2023/08/06 10:39:48;;;;;;;1999.90;999.90;;;;;;;;;;6713406;88;20757;-85
2023/08/06 10:50:09;;;;;;;1999.90;999.90;;;;;;;;;;6758431;77;20211;-77
2023/08/06 11:00:13;;;;;;;1999.90;999.90;;;;;;;;;;6727849;88;20191;-79
2023/08/06 11:10:14;;;;;;;1999.90;999.90;;;;;;;;;;6722775;88;20361;-79
2023/08/06 11:20:15;;;;;;;1999.90;999.90;;;;;;;;;;6727135;88;20208;-79
2023/08/06 11:30:16;;;;;;;1999.90;999.90;;;;;;;;;;6726097;88;20242;-80
2023/08/06 11:40:17;;;;;;;1999.90;999.90;;;;;;;;;;6731086;88;20181;-80
2023/08/06 11:50:26;;;;;;;1999.90;999.90;;;;;;;;;;6734490;88;20202;-81
2023/08/06 12:00:27;;;;;;;1999.90;999.90;;;;;;;;;;6722905;88;20241;-79
2023/08/06 12:10:29;;;;;;;1999.90;999.90;;;;;;;;;;6718202;88;20228;-80
2023/08/06 12:20:30;;;;;;;1999.90;999.90;;;;;;;;;;6715636;88;20593;-79
2023/08/06 12:30:31;;;;;;;1999.90;999.90;;;;;;;;;;6715856;88;20222;-79
2023/08/06 12:40:32;;;;;;;1999.90;999.90;;;;;;;;;;6720885;88;20209;-80
2023/08/06 12:50:33;;;;;;;1999.90;999.90;;;;;;;;;;6730061;88;20541;-82
2023/08/06 13:00:34;;;;;;;1999.90;999.90;;;;;;;;;;6727497;88;20193;-80
2023/08/06 13:10:35;;;;;;;1999.90;999.90;;;;;;;;;;6722365;88;20625;-80
2023/08/06 13:20:42;;;;;;;1999.90;999.90;;;;;;;;;;6728549;88;20339;-80
2023/08/06 13:30:43;;;;;;;1999.90;999.90;;;;;;;;;;6722169;88;20224;-79
2023/08/06 13:40:46;;;;;;;1999.90;999.90;;;;;;;;;;6726165;77;20680;-74
2023/08/06 13:50:47;;;;;;;1999.90;999.90;;;;;;;;;;6713308;88;20231;-74
2023/08/06 14:00:48;;;;;;;1999.90;999.90;;;;;;;;;;6709295;88;20190;-74
2023/08/06 14:10:50;;;;;;;1999.90;999.90;;;;;;;;;;6702362;88;20199;-74
2023/08/06 14:20:51;;;;;;;1999.90;999.90;;;;;;;;;;6703988;88;20180;-74
2023/08/06 14:30:52;;;;;;;1999.90;999.90;;;;;;;;;;6704409;88;20211;-74
2023/08/06 14:40:52;;;;;;;1999.90;999.90;;;;;;;;;;6710498;88;20179;-75
2023/08/06 14:50:54;;;;;;;1999.90;999.90;;;;;;;;;;6712376;88;20230;-75
2023/08/06 15:00:55;;;;;;;1999.90;999.90;;;;;;;;;;6718763;88;20209;-75
2023/08/06 15:10:57;;;;;;;1999.90;999.90;;;;;;;;;;6723279;88;20283;-78
2023/08/06 15:20:58;;;;;;;1999.90;999.90;;;;;;;;;;6715633;88;20308;-77
2023/08/06 15:30:59;;;;;;;1999.90;999.90;;;;;;;;;;6715973;88;20333;-76
2023/08/06 15:40:59;;;;;;;1999.90;999.90;;;;;;;;;;6714940;88;20746;-76
2023/08/06 15:51:00;;;;;;;1999.90;999.90;;;;;;;;;;6715966;88;20189;-77
2023/08/06 16:01:02;;;;;;;1999.90;999.90;;;;;;;;;;6721778;88;20343;-77
2023/08/06 16:11:04;;;;;;;1999.90;999.90;;;;;;;;;;6719993;88;20193;-75
2023/08/06 16:21:05;;;;;;;1999.90;999.90;;;;;;;;;;6720792;88;20194;-77
2023/08/06 16:31:06;;;;;;;1999.90;999.90;;;;;;;;;;6723452;88;21697;-77
2023/08/06 16:41:08;;;;;;;1999.90;999.90;;;;;;;;;;6729218;88;20218;-79
2023/08/06 16:51:30;;;;;;;;;;;;;;;;;;;;;
2023/08/06 17:01:32;;;;;;;1999.90;999.90;;;;;;;;;;6726657;88;20259;-81
2023/08/06 17:11:33;;;;;;;1999.90;999.90;;;;;;;;;;6718982;88;20755;-76
2023/08/06 17:21:34;;;;;;;1999.90;999.90;;;;;;;;;;6718789;88;20238;-75
2023/08/06 17:31:35;;;;;;;1999.90;999.90;;;;;;;;;;6719801;88;20199;-74
2023/08/06 17:41:36;;;;;;;1999.90;999.90;;;;;;;;;;6714732;88;20311;-74
2023/08/06 17:51:37;;;;;;;1999.90;999.90;;;;;;;;;;6699337;88;20353;-74
2023/08/06 18:01:39;;;;;;;1999.90;999.90;;;;;;;;;;6697813;88;20223;-75
2023/08/06 18:11:40;;;;;;;1999.90;999.90;;;;;;;;;;6699791;88;20296;-74
2023/08/06 18:21:41;;;;;;;1999.90;999.90;;;;;;;;;;6703912;88;20511;-74
2023/08/06 18:31:42;;;;;;;1999.90;999.90;;;;;;;;;;6704362;88;20271;-74
2023/08/06 18:41:44;;;;;;;1999.90;999.90;;;;;;;;;;6703533;88;20248;-77
2023/08/06 18:51:45;;;;;;;1999.90;999.90;;;;;;;;;;6707380;88;20215;-76
2023/08/06 19:01:46;;;;;;;1999.90;999.90;;;;;;;;;;6714706;88;20280;-74
2023/08/06 19:11:48;;;;;;;1999.90;999.90;;;;;;;;;;6713249;88;20182;-74
2023/08/06 19:21:51;;;;;;;1999.90;999.90;;;;;;;;;;6719516;88;20207;-74
2023/08/06 19:31:53;;;;;;;1999.90;999.90;;;;;;;;;;6711839;88;20201;-75
2023/08/06 19:41:54;;;;;;;1999.90;999.90;;;;;;;;;;6708172;88;20192;-75
2023/08/06 19:51:55;;;;;;;1999.90;999.90;;;;;;;;;;6693754;88;20737;-76
2023/08/06 20:01:56;;;;;;;1999.90;999.90;;;;;;;;;;6721061;77;20181;-78
2023/08/06 20:11:57;;;;;;;1999.90;999.90;;;;;;;;;;6737956;88;20190;-77
2023/08/06 20:21:58;;;;;;;1999.90;999.90;;;;;;;;;;6738480;88;20218;-78
2023/08/06 20:31:59;;;;;;;1999.90;999.90;;;;;;;;;;6740385;88;20218;-79
2023/08/06 20:42:00;;;;;;;1999.90;999.90;;;;;;;;;;6739752;88;20300;-78
2023/08/06 20:52:01;;;;;;;1999.90;999.90;;;;;;;;;;6739317;88;20215;-79
2023/08/06 21:02:02;;;;;;;1999.90;999.90;;;;;;;;;;6738538;88;20197;-78
2023/08/06 21:12:03;;;;;;;1999.90;999.90;;;;;;;;;;6741310;88;20225;-77
2023/08/06 21:22:06;;;;;;;1999.90;999.90;;;;;;;;;;6742193;88;20621;-78
2023/08/06 21:32:07;;;;;;;1999.90;999.90;;;;;;;;;;6738079;88;20209;-75
2023/08/06 21:42:08;;;;;;;1999.90;999.90;;;;;;;;;;6738305;88;20199;-77
2023/08/06 21:52:10;;;;;;;1999.90;999.90;;;;;;;;;;6738196;88;20608;-77
2023/08/06 22:02:11;;;;;;;1999.90;999.90;;;;;;;;;;6739439;88;20177;-78
2023/08/06 22:12:12;;;;;;;1999.90;999.90;;;;;;;;;;6737902;88;20734;-78
2023/08/06 22:22:13;;;;;;;1999.90;999.90;;;;;;;;;;6742059;88;20247;-78
2023/08/06 22:32:14;;;;;;;1999.90;999.90;;;;;;;;;;6738625;88;20181;-78
2023/08/06 22:42:15;;;;;;;1999.90;999.90;;;;;;;;;;6736263;88;20214;-77
2023/08/06 22:52:16;;;;;;;1999.90;999.90;;;;;;;;;;6737712;88;20227;-77
2023/08/06 23:02:17;;;;;;;1999.90;999.90;;;;;;;;;;6739449;88;20219;-78
2023/08/06 23:12:18;;;;;;;1999.90;999.90;;;;;;;;;;6738292;88;20690;-77
2023/08/06 23:22:19;;;;;;;1999.90;999.90;;;;;;;;;;6738617;88;20194;-77
2023/08/06 23:32:21;;;;;;;1999.90;999.90;;;;;;;;;;6738997;88;20213;-79
2023/08/06 23:42:23;;;;;;;1999.90;999.90;;;;;;;;;;6739975;88;20746;-78
2023/08/06 23:52:24;;;;;;;1999.90;999.90;;;;;;;;;;6731117;88;20229;-78
